ENNA METAR and TAF weather

Enter ICAO airport designator
Station Type Date Time Source
ENNA METAR 2018/07/21 22:50 UTC NOAA

ENNA 212250Z 00000KT CAVOK 11/10 Q1006 RMK WIND 1800FT 17019KT


Station Type Date Time Source
ENNA Decoded METAR 2018/07/21 22:50 UTC NOAA

Banak, Norway (ENNA) 70-04N 024-59E 8M
Jul 21, 2018 - 06:50 PM EDT / 2018.07.21 2250 UTC
Wind: Calm:0
Visibility: greater than 7 mile(s):0
Temperature: 51 F (11 C)
Dew Point: 50 F (10 C)
Relative Humidity: 93%
Pressure (altimeter): 29.71 in. Hg (1006 hPa)
ob: ENNA 212250Z 00000KT CAVOK 11/10 Q1006 RMK WIND 1800FT 17019KT
cycle: 23

Station Type Date Time Source
ENNA TAF 2018/07/21 18:57 UTC NOAA

TAF TAF ENNA 211700Z 2118/2218 34008KT 9999 BKN020
TEMPO 2118/2121 FEW030CB
TEMPO 2203/2208 18010KT PROB30 2206/2215 TSRA SCT020CB


Example: see airport list